sensor_id;sensor_type;location;lat;lon;timestamp;temperature;humidity
69225;DHT22;56333;51.306;17.056;2024-02-04T00:00:45;8.98;81.47
69225;DHT22;56333;51.306;17.056;2024-02-04T00:02:34;8.94;81.10
69225;DHT22;56333;51.306;17.056;2024-02-04T00:04:02;8.95;81.13
69225;DHT22;56333;51.306;17.056;2024-02-04T00:05:31;8.94;80.97
69225;DHT22;56333;51.306;17.056;2024-02-04T00:06:59;8.90;80.68
69225;DHT22;56333;51.306;17.056;2024-02-04T00:08:27;8.93;80.78
69225;DHT22;56333;51.306;17.056;2024-02-04T00:09:56;8.90;80.63
69225;DHT22;56333;51.306;17.056;2024-02-04T00:11:24;8.91;80.68
69225;DHT22;56333;51.306;17.056;2024-02-04T00:12:52;8.90;80.38
69225;DHT22;56333;51.306;17.056;2024-02-04T00:14:21;8.89;80.50
69225;DHT22;56333;51.306;17.056;2024-02-04T00:15:50;8.87;80.60
69225;DHT22;56333;51.306;17.056;2024-02-04T00:17:18;8.88;80.38
69225;DHT22;56333;51.306;17.056;2024-02-04T00:18:46;8.86;80.30
69225;DHT22;56333;51.306;17.056;2024-02-04T00:20:15;8.83;80.32
69225;DHT22;56333;51.306;17.056;2024-02-04T00:21:43;8.84;80.30
69225;DHT22;56333;51.306;17.056;2024-02-04T00:23:12;8.82;80.10
69225;DHT22;56333;51.306;17.056;2024-02-04T00:24:41;8.81;80.28
69225;DHT22;56333;51.306;17.056;2024-02-04T00:26:09;8.82;80.40
69225;DHT22;56333;51.306;17.056;2024-02-04T00:27:37;8.82;80.28
69225;DHT22;56333;51.306;17.056;2024-02-04T00:29:06;8.82;80.40
69225;DHT22;56333;51.306;17.056;2024-02-04T00:30:33;8.85;80.40
69225;DHT22;56333;51.306;17.056;2024-02-04T00:32:02;8.84;80.25
69225;DHT22;56333;51.306;17.056;2024-02-04T00:33:31;8.84;80.18
69225;DHT22;56333;51.306;17.056;2024-02-04T00:34:59;8.84;79.95
69225;DHT22;56333;51.306;17.056;2024-02-04T00:36:28;8.83;80.07
69225;DHT22;56333;51.306;17.056;2024-02-04T00:37:56;8.83;80.05
69225;DHT22;56333;51.306;17.056;2024-02-04T00:39:27;8.82;80.10
69225;DHT22;56333;51.306;17.056;2024-02-04T00:40:55;8.83;80.18
69225;DHT22;56333;51.306;17.056;2024-02-04T00:42:23;8.83;80.20
69225;DHT22;56333;51.306;17.056;2024-02-04T00:43:51;8.84;80.10
69225;DHT22;56333;51.306;17.056;2024-02-04T00:45:20;8.82;80.13
69225;DHT22;56333;51.306;17.056;2024-02-04T00:46:48;8.83;80.20
69225;DHT22;56333;51.306;17.056;2024-02-04T00:48:16;8.81;80.20
69225;DHT22;56333;51.306;17.056;2024-02-04T00:49:44;8.82;80.15
69225;DHT22;56333;51.306;17.056;2024-02-04T00:51:12;8.81;80.15
69225;DHT22;56333;51.306;17.056;2024-02-04T00:52:42;8.79;80.13
69225;DHT22;56333;51.306;17.056;2024-02-04T00:54:10;8.77;80.05
69225;DHT22;56333;51.306;17.056;2024-02-04T00:55:37;8.77;79.95
69225;DHT22;56333;51.306;17.056;2024-02-04T00:57:05;8.77;79.95
69225;DHT22;56333;51.306;17.056;2024-02-04T00:58:33;8.75;79.75
69225;DHT22;56333;51.306;17.056;2024-02-04T01:00:02;8.75;79.88
69225;DHT22;56333;51.306;17.056;2024-02-04T01:01:33;8.74;79.45
69225;DHT22;56333;51.306;17.056;2024-02-04T01:03:01;8.72;79.50
69225;DHT22;56333;51.306;17.056;2024-02-04T01:04:30;8.67;79.05
69225;DHT22;56333;51.306;17.056;2024-02-04T01:05:58;8.65;78.78
69225;DHT22;56333;51.306;17.056;2024-02-04T01:07:26;8.63;78.90
69225;DHT22;56333;51.306;17.056;2024-02-04T01:08:55;8.63;78.95
69225;DHT22;56333;51.306;17.056;2024-02-04T01:10:23;8.62;78.95
69225;DHT22;56333;51.306;17.056;2024-02-04T01:11:52;8.61;78.88
69225;DHT22;56333;51.306;17.056;2024-02-04T01:13:20;8.56;78.93
69225;DHT22;56333;51.306;17.056;2024-02-04T01:14:49;8.55;78.88
69225;DHT22;56333;51.306;17.056;2024-02-04T01:16:17;8.49;78.68
69225;DHT22;56333;51.306;17.056;2024-02-04T01:17:46;8.47;78.65
69225;DHT22;56333;51.306;17.056;2024-02-04T01:19:15;8.45;78.65
69225;DHT22;56333;51.306;17.056;2024-02-04T01:20:44;8.43;78.53
69225;DHT22;56333;51.306;17.056;2024-02-04T01:22:12;8.42;78.43
69225;DHT22;56333;51.306;17.056;2024-02-04T01:23:40;8.40;78.43
69225;DHT22;56333;51.306;17.056;2024-02-04T01:25:09;8.39;78.40
69225;DHT22;56333;51.306;17.056;2024-02-04T01:26:38;8.38;78.32
69225;DHT22;56333;51.306;17.056;2024-02-04T01:28:07;8.35;78.40
69225;DHT22;56333;51.306;17.056;2024-02-04T01:29:35;8.32;78.55
69225;DHT22;56333;51.306;17.056;2024-02-04T01:31:03;8.33;78.55
69225;DHT22;56333;51.306;17.056;2024-02-04T01:32:31;8.32;78.53
69225;DHT22;56333;51.306;17.056;2024-02-04T01:33:59;8.33;78.43
69225;DHT22;56333;51.306;17.056;2024-02-04T01:35:27;8.31;78.10
69225;DHT22;56333;51.306;17.056;2024-02-04T01:36:55;8.30;78.28
69225;DHT22;56333;51.306;17.056;2024-02-04T01:38:24;8.31;78.35
69225;DHT22;56333;51.306;17.056;2024-02-04T01:39:53;8.32;78.22
69225;DHT22;56333;51.306;17.056;2024-02-04T01:41:21;8.31;78.13
69225;DHT22;56333;51.306;17.056;2024-02-04T01:42:51;8.28;78.13
69225;DHT22;56333;51.306;17.056;2024-02-04T01:44:19;8.27;78.20
69225;DHT22;56333;51.306;17.056;2024-02-04T01:45:48;8.26;78.28
69225;DHT22;56333;51.306;17.056;2024-02-04T01:47:18;8.23;78.10
69225;DHT22;56333;51.306;17.056;2024-02-04T01:48:47;8.23;78.15
69225;DHT22;56333;51.306;17.056;2024-02-04T01:50:15;8.24;78.22
69225;DHT22;56333;51.306;17.056;2024-02-04T01:51:43;8.22;78.15
69225;DHT22;56333;51.306;17.056;2024-02-04T01:53:11;8.24;78.22
69225;DHT22;56333;51.306;17.056;2024-02-04T01:54:40;8.22;78.25
69225;DHT22;56333;51.306;17.056;2024-02-04T01:56:09;8.23;78.40
69225;DHT22;56333;51.306;17.056;2024-02-04T01:57:39;8.23;78.63
69225;DHT22;56333;51.306;17.056;2024-02-04T01:59:07;8.26;78.68
69225;DHT22;56333;51.306;17.056;2024-02-04T02:00:37;8.27;78.70
69225;DHT22;56333;51.306;17.056;2024-02-04T02:02:06;8.30;78.88
69225;DHT22;56333;51.306;17.056;2024-02-04T02:03:34;8.29;79.00
69225;DHT22;56333;51.306;17.056;2024-02-04T02:05:04;8.30;79.05
69225;DHT22;56333;51.306;17.056;2024-02-04T02:06:33;8.31;79.20
69225;DHT22;56333;51.306;17.056;2024-02-04T02:08:06;8.34;79.30
69225;DHT22;56333;51.306;17.056;2024-02-04T02:09:35;8.34;79.40
69225;DHT22;56333;51.306;17.056;2024-02-04T02:11:11;8.36;79.53
69225;DHT22;56333;51.306;17.056;2024-02-04T02:12:48;8.37;79.53
69225;DHT22;56333;51.306;17.056;2024-02-04T02:14:26;8.40;79.63
69225;DHT22;56333;51.306;17.056;2024-02-04T02:16:01;8.41;79.60
69225;DHT22;56333;51.306;17.056;2024-02-04T02:17:41;8.44;79.72
69225;DHT22;56333;51.306;17.056;2024-02-04T02:19:32;8.45;79.82
69225;DHT22;56333;51.306;17.056;2024-02-04T02:21:19;8.44;79.93
69225;DHT22;56333;51.306;17.056;2024-02-04T02:23:12;8.45;79.90
69225;DHT22;56333;51.306;17.056;2024-02-04T02:24:46;8.48;79.93
69225;DHT22;56333;51.306;17.056;2024-02-04T02:26:15;8.50;80.00
69225;DHT22;56333;51.306;17.056;2024-02-04T02:27:51;8.51;79.95
69225;DHT22;56333;51.306;17.056;2024-02-04T02:29:19;8.51;80.00
69225;DHT22;56333;51.306;17.056;2024-02-04T02:30:48;8.52;80.03
69225;DHT22;56333;51.306;17.056;2024-02-04T02:32:17;8.51;80.20
69225;DHT22;56333;51.306;17.056;2024-02-04T02:33:46;8.53;80.10
69225;DHT22;56333;51.306;17.056;2024-02-04T02:35:14;8.54;80.10
69225;DHT22;56333;51.306;17.056;2024-02-04T02:36:45;8.56;80.10
69225;DHT22;56333;51.306;17.056;2024-02-04T02:38:20;8.53;80.20
69225;DHT22;56333;51.306;17.056;2024-02-04T02:40:01;8.53;80.10
69225;DHT22;56333;51.306;17.056;2024-02-04T02:41:35;8.55;80.05
69225;DHT22;56333;51.306;17.056;2024-02-04T02:43:04;8.53;79.88
69225;DHT22;56333;51.306;17.056;2024-02-04T02:44:35;8.52;79.72
69225;DHT22;56333;51.306;17.056;2024-02-04T02:46:05;8.56;79.75
69225;DHT22;56333;51.306;17.056;2024-02-04T02:47:34;8.54;79.75
69225;DHT22;56333;51.306;17.056;2024-02-04T02:49:03;8.52;79.88
69225;DHT22;56333;51.306;17.056;2024-02-04T02:50:33;8.51;79.93
69225;DHT22;56333;51.306;17.056;2024-02-04T02:52:01;8.51;80.00
69225;DHT22;56333;51.306;17.056;2024-02-04T02:53:30;8.54;80.00
69225;DHT22;56333;51.306;17.056;2024-02-04T02:54:58;8.54;80.05
69225;DHT22;56333;51.306;17.056;2024-02-04T02:56:26;8.55;80.07
69225;DHT22;56333;51.306;17.056;2024-02-04T02:57:54;8.51;80.30
69225;DHT22;56333;51.306;17.056;2024-02-04T02:59:21;8.51;80.25
69225;DHT22;56333;51.306;17.056;2024-02-04T03:00:50;8.49;80.28
69225;DHT22;56333;51.306;17.056;2024-02-04T03:02:18;8.48;80.35
69225;DHT22;56333;51.306;17.056;2024-02-04T03:03:46;8.48;80.50
69225;DHT22;56333;51.306;17.056;2024-02-04T03:05:16;8.47;80.50
69225;DHT22;56333;51.306;17.056;2024-02-04T03:06:44;8.46;80.50
69225;DHT22;56333;51.306;17.056;2024-02-04T03:08:12;8.45;80.45
69225;DHT22;56333;51.306;17.056;2024-02-04T03:09:41;8.44;80.43
69225;DHT22;56333;51.306;17.056;2024-02-04T03:11:10;8.44;80.40
69225;DHT22;56333;51.306;17.056;2024-02-04T03:12:38;8.44;80.30
69225;DHT22;56333;51.306;17.056;2024-02-04T03:14:06;8.43;80.22
69225;DHT22;56333;51.306;17.056;2024-02-04T03:15:34;8.40;80.07
69225;DHT22;56333;51.306;17.056;2024-02-04T03:17:05;8.39;80.00
69225;DHT22;56333;51.306;17.056;2024-02-04T03:18:33;8.37;79.93
69225;DHT22;56333;51.306;17.056;2024-02-04T03:20:01;8.37;79.90
69225;DHT22;56333;51.306;17.056;2024-02-04T03:21:31;8.36;79.85
69225;DHT22;56333;51.306;17.056;2024-02-04T03:22:59;8.36;79.82
69225;DHT22;56333;51.306;17.056;2024-02-04T03:24:28;8.31;79.57
69225;DHT22;56333;51.306;17.056;2024-02-04T03:25:56;8.28;79.63
69225;DHT22;56333;51.306;17.056;2024-02-04T03:27:24;8.28;79.63
69225;DHT22;56333;51.306;17.056;2024-02-04T03:28:52;8.24;79.60
69225;DHT22;56333;51.306;17.056;2024-02-04T03:30:20;8.20;79.47
69225;DHT22;56333;51.306;17.056;2024-02-04T03:31:49;8.19;79.35
69225;DHT22;56333;51.306;17.056;2024-02-04T03:33:17;8.16;79.47
69225;DHT22;56333;51.306;17.056;2024-02-04T03:34:45;8.16;79.43
69225;DHT22;56333;51.306;17.056;2024-02-04T03:36:15;8.12;79.38
69225;DHT22;56333;51.306;17.056;2024-02-04T03:37:47;8.09;79.40
69225;DHT22;56333;51.306;17.056;2024-02-04T03:39:15;8.10;79.35
69225;DHT22;56333;51.306;17.056;2024-02-04T03:40:43;8.07;79.43
69225;DHT22;56333;51.306;17.056;2024-02-04T03:42:13;8.07;79.43
69225;DHT22;56333;51.306;17.056;2024-02-04T03:43:42;8.06;79.53
69225;DHT22;56333;51.306;17.056;2024-02-04T03:45:12;8.09;79.60
69225;DHT22;56333;51.306;17.056;2024-02-04T03:46:40;8.07;79.72
69225;DHT22;56333;51.306;17.056;2024-02-04T03:48:09;8.07;79.85
69225;DHT22;56333;51.306;17.056;2024-02-04T03:49:37;8.08;79.90
69225;DHT22;56333;51.306;17.056;2024-02-04T03:51:06;8.06;79.97
69225;DHT22;56333;51.306;17.056;2024-02-04T03:52:39;8.03;80.05
69225;DHT22;56333;51.306;17.056;2024-02-04T03:54:08;8.06;80.00
69225;DHT22;56333;51.306;17.056;2024-02-04T03:55:36;8.05;79.70
69225;DHT22;56333;51.306;17.056;2024-02-04T03:57:05;8.05;79.57
69225;DHT22;56333;51.306;17.056;2024-02-04T03:58:34;8.03;79.53
69225;DHT22;56333;51.306;17.056;2024-02-04T04:00:05;8.02;79.35
69225;DHT22;56333;51.306;17.056;2024-02-04T04:01:37;7.99;79.00
69225;DHT22;56333;51.306;17.056;2024-02-04T04:03:06;7.98;78.93
69225;DHT22;56333;51.306;17.056;2024-02-04T04:04:35;7.95;78.78
69225;DHT22;56333;51.306;17.056;2024-02-04T04:06:08;7.90;78.80
69225;DHT22;56333;51.306;17.056;2024-02-04T04:07:36;7.88;78.47
69225;DHT22;56333;51.306;17.056;2024-02-04T04:09:06;7.84;78.13
69225;DHT22;56333;51.306;17.056;2024-02-04T04:10:34;7.82;77.28
69225;DHT22;56333;51.306;17.056;2024-02-04T04:12:03;7.78;77.07
69225;DHT22;56333;51.306;17.056;2024-02-04T04:13:32;7.74;76.88
69225;DHT22;56333;51.306;17.056;2024-02-04T04:15:00;7.72;76.75
69225;DHT22;56333;51.306;17.056;2024-02-04T04:16:31;7.68;76.60
69225;DHT22;56333;51.306;17.056;2024-02-04T04:17:59;7.66;76.47
69225;DHT22;56333;51.306;17.056;2024-02-04T04:19:28;7.65;76.63
69225;DHT22;56333;51.306;17.056;2024-02-04T04:20:57;7.64;76.43
69225;DHT22;56333;51.306;17.056;2024-02-04T04:22:26;7.60;76.43
69225;DHT22;56333;51.306;17.056;2024-02-04T04:23:53;7.59;76.40
69225;DHT22;56333;51.306;17.056;2024-02-04T04:25:21;7.52;76.18
69225;DHT22;56333;51.306;17.056;2024-02-04T04:26:49;7.51;76.25
69225;DHT22;56333;51.306;17.056;2024-02-04T04:28:17;7.48;76.50
69225;DHT22;56333;51.306;17.056;2024-02-04T04:29:46;7.44;76.50
69225;DHT22;56333;51.306;17.056;2024-02-04T04:31:14;7.45;76.40
69225;DHT22;56333;51.306;17.056;2024-02-04T04:32:42;7.42;76.03
69225;DHT22;56333;51.306;17.056;2024-02-04T04:34:11;7.43;76.10
69225;DHT22;56333;51.306;17.056;2024-02-04T04:35:42;7.39;76.15
69225;DHT22;56333;51.306;17.056;2024-02-04T04:37:10;7.39;75.50
69225;DHT22;56333;51.306;17.056;2024-02-04T04:38:39;7.34;75.35
69225;DHT22;56333;51.306;17.056;2024-02-04T04:40:09;7.34;75.38
69225;DHT22;56333;51.306;17.056;2024-02-04T04:41:41;7.35;75.45
69225;DHT22;56333;51.306;17.056;2024-02-04T04:43:09;7.34;75.78
69225;DHT22;56333;51.306;17.056;2024-02-04T04:44:38;7.35;75.82
69225;DHT22;56333;51.306;17.056;2024-02-04T04:46:07;7.36;75.60
69225;DHT22;56333;51.306;17.056;2024-02-04T04:47:35;7.36;75.55
69225;DHT22;56333;51.306;17.056;2024-02-04T04:49:05;7.36;75.45
69225;DHT22;56333;51.306;17.056;2024-02-04T04:50:34;7.33;75.53
69225;DHT22;56333;51.306;17.056;2024-02-04T04:52:02;7.30;75.40
69225;DHT22;56333;51.306;17.056;2024-02-04T04:53:31;7.28;75.53
69225;DHT22;56333;51.306;17.056;2024-02-04T04:55:00;7.25;75.72
69225;DHT22;56333;51.306;17.056;2024-02-04T04:56:28;7.22;75.65
69225;DHT22;56333;51.306;17.056;2024-02-04T04:58:00;7.22;75.60
69225;DHT22;56333;51.306;17.056;2024-02-04T04:59:29;7.20;75.72
69225;DHT22;56333;51.306;17.056;2024-02-04T05:00:59;7.18;75.80
69225;DHT22;56333;51.306;17.056;2024-02-04T05:02:27;7.19;75.78
69225;DHT22;56333;51.306;17.056;2024-02-04T05:03:55;7.20;75.78
69225;DHT22;56333;51.306;17.056;2024-02-04T05:05:24;7.21;75.80
69225;DHT22;56333;51.306;17.056;2024-02-04T05:06:52;7.19;75.63
69225;DHT22;56333;51.306;17.056;2024-02-04T05:08:20;7.19;75.53
69225;DHT22;56333;51.306;17.056;2024-02-04T05:09:48;7.16;75.53
69225;DHT22;56333;51.306;17.056;2024-02-04T05:11:16;7.14;75.63
69225;DHT22;56333;51.306;17.056;2024-02-04T05:12:44;7.13;75.50
69225;DHT22;56333;51.306;17.056;2024-02-04T05:14:12;7.10;75.50
69225;DHT22;56333;51.306;17.056;2024-02-04T05:15:40;7.07;75.53
69225;DHT22;56333;51.306;17.056;2024-02-04T05:17:08;7.05;75.53
69225;DHT22;56333;51.306;17.056;2024-02-04T05:18:37;7.03;75.63
69225;DHT22;56333;51.306;17.056;2024-02-04T05:20:07;7.05;75.65
69225;DHT22;56333;51.306;17.056;2024-02-04T05:21:39;7.02;75.72
69225;DHT22;56333;51.306;17.056;2024-02-04T05:23:07;7.01;75.65
69225;DHT22;56333;51.306;17.056;2024-02-04T05:24:35;7.01;75.78
69225;DHT22;56333;51.306;17.056;2024-02-04T05:26:05;6.99;75.72
69225;DHT22;56333;51.306;17.056;2024-02-04T05:27:33;6.98;75.70
69225;DHT22;56333;51.306;17.056;2024-02-04T05:29:02;6.95;75.72
69225;DHT22;56333;51.306;17.056;2024-02-04T05:30:31;6.97;75.82
69225;DHT22;56333;51.306;17.056;2024-02-04T05:31:59;6.96;75.82
69225;DHT22;56333;51.306;17.056;2024-02-04T05:33:28;6.96;75.78
69225;DHT22;56333;51.306;17.056;2024-02-04T05:34:56;6.98;75.53
69225;DHT22;56333;51.306;17.056;2024-02-04T05:36:24;6.95;75.50
69225;DHT22;56333;51.306;17.056;2024-02-04T05:37:52;6.94;75.45
69225;DHT22;56333;51.306;17.056;2024-02-04T05:39:20;6.93;75.40
69225;DHT22;56333;51.306;17.056;2024-02-04T05:40:48;6.91;75.28
69225;DHT22;56333;51.306;17.056;2024-02-04T05:42:16;6.89;75.22
69225;DHT22;56333;51.306;17.056;2024-02-04T05:43:44;6.86;75.35
69225;DHT22;56333;51.306;17.056;2024-02-04T05:45:13;6.84;75.35
69225;DHT22;56333;51.306;17.056;2024-02-04T05:46:41;6.84;75.45
69225;DHT22;56333;51.306;17.056;2024-02-04T05:48:09;6.83;75.40
69225;DHT22;56333;51.306;17.056;2024-02-04T05:49:38;6.81;75.50
69225;DHT22;56333;51.306;17.056;2024-02-04T05:51:06;6.84;75.50
69225;DHT22;56333;51.306;17.056;2024-02-04T05:52:34;6.82;75.53
69225;DHT22;56333;51.306;17.056;2024-02-04T05:54:02;6.84;75.53
69225;DHT22;56333;51.306;17.056;2024-02-04T05:55:31;6.83;75.60
69225;DHT22;56333;51.306;17.056;2024-02-04T05:56:59;6.84;75.60
69225;DHT22;56333;51.306;17.056;2024-02-04T05:58:27;6.83;75.60
69225;DHT22;56333;51.306;17.056;2024-02-04T05:59:56;6.82;75.68
69225;DHT22;56333;51.306;17.056;2024-02-04T06:01:24;6.83;75.70
69225;DHT22;56333;51.306;17.056;2024-02-04T06:02:52;6.82;75.65
69225;DHT22;56333;51.306;17.056;2024-02-04T06:04:21;6.80;75.75
69225;DHT22;56333;51.306;17.056;2024-02-04T06:05:49;6.78;75.85
69225;DHT22;56333;51.306;17.056;2024-02-04T06:07:17;6.76;76.03
69225;DHT22;56333;51.306;17.056;2024-02-04T06:08:45;6.77;76.15
69225;DHT22;56333;51.306;17.056;2024-02-04T06:10:14;6.77;76.15
69225;DHT22;56333;51.306;17.056;2024-02-04T06:11:45;6.76;76.22
69225;DHT22;56333;51.306;17.056;2024-02-04T06:13:14;6.75;76.35
69225;DHT22;56333;51.306;17.056;2024-02-04T06:14:42;6.77;76.43
69225;DHT22;56333;51.306;17.056;2024-02-04T06:16:10;6.78;76.50
69225;DHT22;56333;51.306;17.056;2024-02-04T06:17:38;6.82;76.50
69225;DHT22;56333;51.306;17.056;2024-02-04T06:19:06;6.84;76.53
69225;DHT22;56333;51.306;17.056;2024-02-04T06:20:37;6.87;76.47
69225;DHT22;56333;51.306;17.056;2024-02-04T06:22:05;6.88;76.50
69225;DHT22;56333;51.306;17.056;2024-02-04T06:23:34;6.89;76.47
69225;DHT22;56333;51.306;17.056;2024-02-04T06:25:05;6.89;76.55
69225;DHT22;56333;51.306;17.056;2024-02-04T06:26:36;6.90;76.60
69225;DHT22;56333;51.306;17.056;2024-02-04T06:28:06;6.92;76.60
69225;DHT22;56333;51.306;17.056;2024-02-04T06:29:34;6.95;76.50
69225;DHT22;56333;51.306;17.056;2024-02-04T06:31:03;6.99;76.50
69225;DHT22;56333;51.306;17.056;2024-02-04T06:32:34;7.01;76.47
69225;DHT22;56333;51.306;17.056;2024-02-04T06:34:03;7.02;76.47
69225;DHT22;56333;51.306;17.056;2024-02-04T06:35:31;7.03;76.47
69225;DHT22;56333;51.306;17.056;2024-02-04T06:37:00;7.05;76.30
69225;DHT22;56333;51.306;17.056;2024-02-04T06:38:29;7.08;76.20
69225;DHT22;56333;51.306;17.056;2024-02-04T06:39:57;7.09;76.15
69225;DHT22;56333;51.306;17.056;2024-02-04T06:41:27;7.12;76.10
69225;DHT22;56333;51.306;17.056;2024-02-04T06:42:56;7.11;76.00
69225;DHT22;56333;51.306;17.056;2024-02-04T06:44:24;7.09;75.85
69225;DHT22;56333;51.306;17.056;2024-02-04T06:45:52;7.03;75.97
69225;DHT22;56333;51.306;17.056;2024-02-04T06:47:20;7.01;76.13
69225;DHT22;56333;51.306;17.056;2024-02-04T06:48:48;6.99;76.20
69225;DHT22;56333;51.306;17.056;2024-02-04T06:50:17;6.95;76.28
69225;DHT22;56333;51.306;17.056;2024-02-04T06:51:45;6.96;76.32
69225;DHT22;56333;51.306;17.056;2024-02-04T06:53:16;6.95;76.40
69225;DHT22;56333;51.306;17.056;2024-02-04T06:54:44;6.93;76.45
69225;DHT22;56333;51.306;17.056;2024-02-04T06:56:13;6.93;76.32
69225;DHT22;56333;51.306;17.056;2024-02-04T06:57:41;6.91;76.20
69225;DHT22;56333;51.306;17.056;2024-02-04T06:59:09;6.90;76.20
69225;DHT22;56333;51.306;17.056;2024-02-04T07:00:37;6.91;76.20
69225;DHT22;56333;51.306;17.056;2024-02-04T07:02:06;6.91;76.20
69225;DHT22;56333;51.306;17.056;2024-02-04T07:03:34;6.92;76.10
69225;DHT22;56333;51.306;17.056;2024-02-04T07:05:01;6.91;76.00
69225;DHT22;56333;51.306;17.056;2024-02-04T07:06:31;6.91;75.93
69225;DHT22;56333;51.306;17.056;2024-02-04T07:07:59;6.90;75.95
69225;DHT22;56333;51.306;17.056;2024-02-04T07:09:27;6.89;76.05
69225;DHT22;56333;51.306;17.056;2024-02-04T07:10:55;6.88;76.10
69225;DHT22;56333;51.306;17.056;2024-02-04T07:12:23;6.86;76.10
69225;DHT22;56333;51.306;17.056;2024-02-04T07:13:51;6.84;76.15
69225;DHT22;56333;51.306;17.056;2024-02-04T07:15:23;6.81;76.22
69225;DHT22;56333;51.306;17.056;2024-02-04T07:16:51;6.79;76.32
69225;DHT22;56333;51.306;17.056;2024-02-04T07:18:19;6.76;76.45
69225;DHT22;56333;51.306;17.056;2024-02-04T07:19:48;6.75;76.40
69225;DHT22;56333;51.306;17.056;2024-02-04T07:21:17;6.73;76.47
69225;DHT22;56333;51.306;17.056;2024-02-04T07:22:45;6.71;76.53
69225;DHT22;56333;51.306;17.056;2024-02-04T07:24:13;6.72;76.63
69225;DHT22;56333;51.306;17.056;2024-02-04T07:25:42;6.72;76.63
69225;DHT22;56333;51.306;17.056;2024-02-04T07:27:11;6.71;76.75
69225;DHT22;56333;51.306;17.056;2024-02-04T07:28:39;6.71;76.70
69225;DHT22;56333;51.306;17.056;2024-02-04T07:30:09;6.69;76.82
69225;DHT22;56333;51.306;17.056;2024-02-04T07:31:38;6.64;76.88
69225;DHT22;56333;51.306;17.056;2024-02-04T07:33:07;6.63;76.90
69225;DHT22;56333;51.306;17.056;2024-02-04T07:34:35;6.59;76.95
69225;DHT22;56333;51.306;17.056;2024-02-04T07:36:03;6.60;77.00
69225;DHT22;56333;51.306;17.056;2024-02-04T07:37:33;6.57;76.95
69225;DHT22;56333;51.306;17.056;2024-02-04T07:39:01;6.54;77.03
69225;DHT22;56333;51.306;17.056;2024-02-04T07:40:30;6.52;76.90
69225;DHT22;56333;51.306;17.056;2024-02-04T07:41:59;6.53;76.93
69225;DHT22;56333;51.306;17.056;2024-02-04T07:43:27;6.53;76.93
69225;DHT22;56333;51.306;17.056;2024-02-04T07:44:56;6.57;76.93
69225;DHT22;56333;51.306;17.056;2024-02-04T07:46:25;6.56;76.85
69225;DHT22;56333;51.306;17.056;2024-02-04T07:47:53;6.58;76.88
69225;DHT22;56333;51.306;17.056;2024-02-04T07:49:21;6.57;76.57
69225;DHT22;56333;51.306;17.056;2024-02-04T07:50:49;6.63;76.45
69225;DHT22;56333;51.306;17.056;2024-02-04T07:52:19;6.64;76.47
69225;DHT22;56333;51.306;17.056;2024-02-04T07:53:48;6.64;76.50
69225;DHT22;56333;51.306;17.056;2024-02-04T07:55:16;6.66;76.32
69225;DHT22;56333;51.306;17.056;2024-02-04T07:56:44;6.65;76.18
69225;DHT22;56333;51.306;17.056;2024-02-04T07:58:12;6.67;76.03
69225;DHT22;56333;51.306;17.056;2024-02-04T07:59:41;6.67;76.00
69225;DHT22;56333;51.306;17.056;2024-02-04T08:01:09;6.69;76.03
69225;DHT22;56333;51.306;17.056;2024-02-04T08:02:37;6.68;75.72
69225;DHT22;56333;51.306;17.056;2024-02-04T08:04:05;6.70;75.45
69225;DHT22;56333;51.306;17.056;2024-02-04T08:05:35;6.70;75.57
69225;DHT22;56333;51.306;17.056;2024-02-04T08:07:04;6.75;75.65
69225;DHT22;56333;51.306;17.056;2024-02-04T08:08:32;6.76;75.57
69225;DHT22;56333;51.306;17.056;2024-02-04T08:10:02;6.78;75.22
69225;DHT22;56333;51.306;17.056;2024-02-04T08:11:31;6.76;74.80
69225;DHT22;56333;51.306;17.056;2024-02-04T08:12:59;6.75;74.63
69225;DHT22;56333;51.306;17.056;2024-02-04T08:14:27;6.77;74.70
69225;DHT22;56333;51.306;17.056;2024-02-04T08:15:55;6.81;74.85
69225;DHT22;56333;51.306;17.056;2024-02-04T08:17:24;6.81;74.78
69225;DHT22;56333;51.306;17.056;2024-02-04T08:18:54;6.84;74.40
69225;DHT22;56333;51.306;17.056;2024-02-04T08:20:23;6.88;74.30
69225;DHT22;56333;51.306;17.056;2024-02-04T08:21:51;6.89;74.00
69225;DHT22;56333;51.306;17.056;2024-02-04T08:23:20;6.93;74.22
69225;DHT22;56333;51.306;17.056;2024-02-04T08:24:48;6.96;73.82
69225;DHT22;56333;51.306;17.056;2024-02-04T08:26:17;7.01;73.85
69225;DHT22;56333;51.306;17.056;2024-02-04T08:27:46;7.05;73.47
69225;DHT22;56333;51.306;17.056;2024-02-04T08:29:14;7.07;73.40
69225;DHT22;56333;51.306;17.056;2024-02-04T08:30:41;7.09;73.43
69225;DHT22;56333;51.306;17.056;2024-02-04T08:32:09;7.14;73.05
69225;DHT22;56333;51.306;17.056;2024-02-04T08:33:37;7.14;72.82
69225;DHT22;56333;51.306;17.056;2024-02-04T08:35:07;7.16;72.57
69225;DHT22;56333;51.306;17.056;2024-02-04T08:36:35;7.20;71.88
69225;DHT22;56333;51.306;17.056;2024-02-04T08:38:03;7.27;72.38
69225;DHT22;56333;51.306;17.056;2024-02-04T08:39:31;7.30;72.40
69225;DHT22;56333;51.306;17.056;2024-02-04T08:40:59;7.37;72.53
69225;DHT22;56333;51.306;17.056;2024-02-04T08:42:28;7.41;72.07
69225;DHT22;56333;51.306;17.056;2024-02-04T08:43:56;7.46;71.43
69225;DHT22;56333;51.306;17.056;2024-02-04T08:45:24;7.52;71.47
69225;DHT22;56333;51.306;17.056;2024-02-04T08:46:53;7.58;71.57
69225;DHT22;56333;51.306;17.056;2024-02-04T08:48:22;7.63;70.28
69225;DHT22;56333;51.306;17.056;2024-02-04T08:49:50;7.66;69.50
69225;DHT22;56333;51.306;17.056;2024-02-04T08:51:19;7.70;68.90
69225;DHT22;56333;51.306;17.056;2024-02-04T08:52:47;7.76;68.20
69225;DHT22;56333;51.306;17.056;2024-02-04T08:54:16;7.80;68.53
69225;DHT22;56333;51.306;17.056;2024-02-04T08:55:43;7.86;67.85
69225;DHT22;56333;51.306;17.056;2024-02-04T08:57:12;7.93;67.45
69225;DHT22;56333;51.306;17.056;2024-02-04T08:58:41;7.99;67.20
69225;DHT22;56333;51.306;17.056;2024-02-04T09:00:12;8.05;66.68
69225;DHT22;56333;51.306;17.056;2024-02-04T09:01:43;8.06;66.00
69225;DHT22;56333;51.306;17.056;2024-02-04T09:03:12;8.13;66.43
69225;DHT22;56333;51.306;17.056;2024-02-04T09:04:40;8.14;66.38
69225;DHT22;56333;51.306;17.056;2024-02-04T09:06:08;8.19;66.85
69225;DHT22;56333;51.306;17.056;2024-02-04T09:07:36;8.20;66.30
69225;DHT22;56333;51.306;17.056;2024-02-04T09:09:04;8.23;66.63
69225;DHT22;56333;51.306;17.056;2024-02-04T09:10:32;8.26;66.40
69225;DHT22;56333;51.306;17.056;2024-02-04T09:12:01;8.28;66.47
69225;DHT22;56333;51.306;17.056;2024-02-04T09:13:30;8.29;65.70
69225;DHT22;56333;51.306;17.056;2024-02-04T09:14:59;8.32;65.60
69225;DHT22;56333;51.306;17.056;2024-02-04T09:16:29;8.32;65.60
69225;DHT22;56333;51.306;17.056;2024-02-04T09:17:57;8.35;66.35
69225;DHT22;56333;51.306;17.056;2024-02-04T09:19:26;8.35;65.05
69225;DHT22;56333;51.306;17.056;2024-02-04T09:20:54;8.36;65.38
69225;DHT22;56333;51.306;17.056;2024-02-04T09:22:22;8.35;65.30